createdAt,value
2018-06-17T00:00:56.638Z,50.20
2018-06-17T00:02:01.567Z,50.10
2018-06-17T00:03:06.490Z,50.20
2018-06-17T00:04:11.540Z,50.00
2018-06-17T00:05:16.632Z,50.20
2018-06-17T00:06:21.680Z,50.10
2018-06-17T00:07:26.530Z,50.20
2018-06-17T00:08:31.670Z,50.10
2018-06-17T00:09:36.561Z,50.00
2018-06-17T00:10:41.470Z,50.10
2018-06-17T00:11:46.368Z,50.00
2018-06-17T00:12:51.612Z,50.00
2018-06-17T00:13:56.763Z,50.00
2018-06-17T00:15:01.642Z,50.10
2018-06-17T00:16:14.910Z,50.10
2018-06-17T00:17:21.070Z,50.00
2018-06-17T00:18:26.026Z,50.00
2018-06-17T00:19:31.193Z,50.00
2018-06-17T00:20:36.291Z,50.00
2018-06-17T00:21:41.371Z,50.00
2018-06-17T00:22:47.088Z,50.10
2018-06-17T00:23:52.850Z,50.10
2018-06-17T00:24:58.192Z,50.00
2018-06-17T00:26:03.219Z,50.10
2018-06-17T00:27:08.122Z,50.00
2018-06-17T00:28:13.080Z,50.00
2018-06-17T00:29:17.986Z,50.10
2018-06-17T00:30:22.956Z,50.00
2018-06-17T00:31:27.799Z,50.10
2018-06-17T00:32:32.705Z,50.00
2018-06-17T00:33:37.739Z,50.00
2018-06-17T00:34:42.608Z,50.20
2018-06-17T00:35:47.604Z,50.10
2018-06-17T00:36:52.501Z,50.10
2018-06-17T00:37:57.536Z,50.10
2018-06-17T00:39:03.666Z,50.00
2018-06-17T00:40:09.083Z,50.10
2018-06-17T00:41:13.917Z,50.20
2018-06-17T00:42:18.997Z,50.10
2018-06-17T00:43:24.191Z,50.10
2018-06-17T00:44:29.115Z,50.10
2018-06-17T00:45:34.179Z,50.10
2018-06-17T00:46:39.197Z,50.10
2018-06-17T00:47:44.192Z,50.10
2018-06-17T00:48:49.116Z,50.00
2018-06-17T00:49:53.945Z,50.10
2018-06-17T00:50:59.013Z,50.10
2018-06-17T00:52:04.039Z,50.10
2018-06-17T00:53:08.975Z,50.10
2018-06-17T00:54:14.084Z,50.10
2018-06-17T00:55:19.109Z,50.10
2018-06-17T00:56:24.119Z,50.20
2018-06-17T00:57:29.106Z,50.10
2018-06-17T00:58:33.988Z,50.10
2018-06-17T00:59:38.957Z,50.10
2018-06-17T01:00:44.188Z,50.10
2018-06-17T01:01:49.183Z,50.10
2018-06-17T01:02:54.178Z,50.10
2018-06-17T01:03:59.095Z,50.20
2018-06-17T01:05:04.027Z,50.10
2018-06-17T01:06:08.929Z,50.10
2018-06-17T01:07:13.867Z,50.10
2018-06-17T01:08:18.774Z,50.10
2018-06-17T01:09:23.737Z,50.10
2018-06-17T01:10:28.716Z,50.20
2018-06-17T01:11:33.552Z,50.20
2018-06-17T01:12:38.420Z,50.10
2018-06-17T01:13:43.353Z,50.10
2018-06-17T01:14:48.337Z,50.10
2018-06-17T01:15:53.229Z,50.10
2018-06-17T01:16:58.225Z,50.20
2018-06-17T01:18:03.129Z,50.10
2018-06-17T01:19:08.019Z,50.10
2018-06-17T01:20:13.050Z,50.10
2018-06-17T01:21:18.116Z,50.20
2018-06-17T01:22:23.171Z,50.00
2018-06-17T01:23:28.223Z,50.20
2018-06-17T01:24:33.323Z,50.20
2018-06-17T01:25:38.376Z,50.10
2018-06-17T01:26:43.470Z,50.10
2018-06-17T01:27:48.491Z,50.20
2018-06-17T01:28:53.392Z,50.20
2018-06-17T01:29:58.551Z,50.20
2018-06-17T01:31:03.618Z,50.20
2018-06-17T01:32:08.597Z,50.20
2018-06-17T01:33:13.546Z,50.20
2018-06-17T01:34:18.484Z,50.20
2018-06-17T01:35:23.561Z,50.20
2018-06-17T01:36:28.629Z,50.20
2018-06-17T01:37:33.536Z,50.20
2018-06-17T01:38:38.531Z,50.20
2018-06-17T01:39:43.442Z,50.20
2018-06-17T01:40:48.479Z,50.20
2018-06-17T01:41:53.397Z,50.20
2018-06-17T01:42:58.298Z,50.20
2018-06-17T01:44:03.338Z,50.20
2018-06-17T01:45:08.425Z,50.20
2018-06-17T01:46:13.654Z,50.90
2018-06-17T01:47:18.710Z,50.20
2018-06-17T01:48:23.736Z,50.20
2018-06-17T01:49:28.751Z,50.20
2018-06-17T01:50:33.840Z,50.20
2018-06-17T01:51:38.870Z,50.20
2018-06-17T01:52:43.807Z,50.20
2018-06-17T01:53:48.716Z,50.50
2018-06-17T01:54:53.810Z,50.90
2018-06-17T01:55:58.840Z,50.20
2018-06-17T01:57:03.797Z,50.20
2018-06-17T01:58:08.866Z,50.20
2018-06-17T01:59:13.962Z,50.30
2018-06-17T02:00:19.057Z,50.30
2018-06-17T02:01:23.981Z,50.20
2018-06-17T02:02:28.940Z,50.20
2018-06-17T02:03:33.992Z,50.30
2018-06-17T02:04:38.942Z,50.30
2018-06-17T02:05:44.003Z,50.30
2018-06-17T02:06:48.904Z,50.20
2018-06-17T02:07:54.014Z,50.30
2018-06-17T02:08:58.988Z,50.30
2018-06-17T02:10:04.081Z,50.30
2018-06-17T02:11:09.062Z,50.30
2018-06-17T02:12:14.097Z,50.30
2018-06-17T02:13:19.204Z,50.30
2018-06-17T02:14:24.136Z,50.30
2018-06-17T02:15:29.364Z,50.30
2018-06-17T02:16:34.257Z,50.40
2018-06-17T02:17:39.385Z,50.30
2018-06-17T02:18:44.521Z,50.30
2018-06-17T02:19:49.534Z,50.30
2018-06-17T02:20:54.641Z,50.30
2018-06-17T02:21:59.617Z,50.30
2018-06-17T02:23:04.694Z,50.30
2018-06-17T02:24:09.762Z,50.30
2018-06-17T02:25:14.841Z,50.30
2018-06-17T02:26:19.773Z,50.30
2018-06-17T02:27:24.792Z,50.40
2018-06-17T02:28:30.008Z,50.20
2018-06-17T02:29:34.898Z,50.40
2018-06-17T02:30:40.115Z,50.30
2018-06-17T02:31:45.052Z,50.30
2018-06-17T02:32:50.088Z,50.30
2018-06-17T02:33:55.030Z,50.30
2018-06-17T02:35:00.027Z,50.30
2018-06-17T02:36:04.910Z,50.40
2018-06-17T02:37:09.928Z,50.40
2018-06-17T02:38:14.903Z,50.30
2018-06-17T02:39:19.927Z,50.30
2018-06-17T02:40:25.070Z,50.40
2018-06-17T02:41:29.974Z,50.30
2018-06-17T02:42:35.072Z,50.40
2018-06-17T02:43:40.154Z,50.30
2018-06-17T02:44:45.515Z,50.40
2018-06-17T02:45:50.645Z,50.30
2018-06-17T02:46:55.805Z,50.30
2018-06-17T02:48:00.875Z,50.30
2018-06-17T02:49:05.941Z,50.30
2018-06-17T02:50:11.017Z,50.30
2018-06-17T02:51:16.103Z,50.40
2018-06-17T02:52:21.142Z,50.30
2018-06-17T02:53:26.275Z,50.30
2018-06-17T02:54:31.409Z,50.40
2018-06-17T02:55:36.390Z,50.40
2018-06-17T02:56:41.300Z,50.30
2018-06-17T02:57:46.350Z,51.00
2018-06-17T02:58:51.522Z,50.40
2018-06-17T02:59:56.502Z,50.40
2018-06-17T03:01:01.547Z,50.40
2018-06-17T03:02:06.500Z,50.40
2018-06-17T03:03:11.531Z,50.40
2018-06-17T03:04:16.493Z,50.40
2018-06-17T03:05:21.602Z,50.40
2018-06-17T03:06:26.596Z,50.40
2018-06-17T03:07:31.470Z,50.40
2018-06-17T03:08:36.508Z,50.40
2018-06-17T03:09:41.454Z,50.40
2018-06-17T03:10:46.527Z,50.40
2018-06-17T03:11:51.650Z,50.40
2018-06-17T03:12:56.760Z,50.40
2018-06-17T03:14:01.868Z,50.40
2018-06-17T03:15:06.888Z,50.40
2018-06-17T03:16:12.189Z,50.40
2018-06-17T03:17:17.123Z,50.40
2018-06-17T03:18:22.019Z,50.50
2018-06-17T03:19:27.657Z,50.40
2018-06-17T03:20:32.738Z,50.50
2018-06-17T03:21:37.688Z,50.50
2018-06-17T03:22:42.830Z,50.50
2018-06-17T03:23:47.849Z,50.40
2018-06-17T03:24:52.839Z,50.40
2018-06-17T03:25:57.970Z,50.40
2018-06-17T03:27:02.976Z,50.40
2018-06-17T03:28:08.163Z,50.40
2018-06-17T03:29:13.153Z,50.40
2018-06-17T03:30:18.453Z,50.50
2018-06-17T03:31:23.570Z,50.50
2018-06-17T03:32:28.852Z,50.50
2018-06-17T03:33:33.869Z,50.50
2018-06-17T03:34:38.984Z,50.50
2018-06-17T03:35:43.878Z,50.50
2018-06-17T03:36:48.934Z,50.50
2018-06-17T03:37:53.872Z,50.50
2018-06-17T03:38:59.031Z,50.50
2018-06-17T03:40:04.131Z,50.50
2018-06-17T03:41:09.198Z,50.50
2018-06-17T03:42:14.398Z,50.50
2018-06-17T03:43:19.415Z,50.50
2018-06-17T03:44:24.411Z,50.50
2018-06-17T03:45:29.587Z,50.50
2018-06-17T03:46:34.655Z,50.60
2018-06-17T03:47:39.604Z,50.50
2018-06-17T03:48:44.623Z,50.50
2018-06-17T03:49:49.523Z,50.50
2018-06-17T03:50:54.577Z,50.50
2018-06-17T03:51:59.696Z,50.50
2018-06-17T03:53:04.701Z,50.50
2018-06-17T03:54:09.918Z,50.50
2018-06-17T03:55:14.958Z,50.50
2018-06-17T03:56:20.182Z,50.50
2018-06-17T03:57:25.127Z,50.50
2018-06-17T03:58:30.232Z,50.50
2018-06-17T03:59:35.251Z,50.50
2018-06-17T04:00:40.235Z,50.50
2018-06-17T04:01:45.310Z,50.50
2018-06-17T04:02:50.558Z,50.50
2018-06-17T04:03:55.438Z,50.50
2018-06-17T04:05:00.447Z,50.50
2018-06-17T04:06:05.413Z,50.60
2018-06-17T04:07:10.558Z,50.50
2018-06-17T04:08:15.610Z,50.60
2018-06-17T04:09:20.498Z,50.50
2018-06-17T04:10:25.543Z,50.60
2018-06-17T04:11:30.537Z,50.50
2018-06-17T04:12:35.636Z,50.50
2018-06-17T04:13:40.681Z,50.50
2018-06-17T04:14:45.695Z,50.50
2018-06-17T04:15:50.907Z,51.20
2018-06-17T04:16:55.912Z,50.60
2018-06-17T04:18:00.995Z,50.60
2018-06-17T04:19:05.960Z,50.60
2018-06-17T04:20:10.949Z,50.60
2018-06-17T04:21:15.988Z,50.60
2018-06-17T04:22:21.076Z,50.60
2018-06-17T04:23:26.158Z,50.60
2018-06-17T04:24:31.217Z,50.60
2018-06-17T04:25:36.248Z,50.50
2018-06-17T04:26:41.212Z,50.60
2018-06-17T04:27:46.127Z,50.60
2018-06-17T04:28:51.109Z,50.50
2018-06-17T04:29:56.139Z,50.60
2018-06-17T04:31:01.168Z,50.60
2018-06-17T04:32:06.208Z,50.60
2018-06-17T04:33:11.200Z,50.60
2018-06-17T04:34:16.090Z,50.60
2018-06-17T04:35:21.166Z,50.60
2018-06-17T04:36:26.168Z,50.60
2018-06-17T04:37:31.190Z,50.60
2018-06-17T04:38:36.161Z,50.60
2018-06-17T04:39:41.253Z,50.60
2018-06-17T04:40:46.341Z,50.60
2018-06-17T04:41:51.326Z,50.60
2018-06-17T04:42:56.281Z,50.60
2018-06-17T04:44:01.232Z,50.60
2018-06-17T04:45:06.257Z,50.60
2018-06-17T04:46:11.374Z,50.60
2018-06-17T04:47:16.414Z,50.60
2018-06-17T04:48:21.292Z,50.60
2018-06-17T04:49:26.227Z,50.60
2018-06-17T04:50:31.172Z,50.70
2018-06-17T04:51:36.105Z,50.60
2018-06-17T04:52:41.113Z,50.60
2018-06-17T04:53:46.139Z,50.70
2018-06-17T04:54:51.206Z,50.70
2018-06-17T04:55:56.372Z,50.70
2018-06-17T04:57:01.222Z,50.70
2018-06-17T04:58:06.222Z,50.70
2018-06-17T04:59:11.287Z,50.70
2018-06-17T05:00:16.173Z,50.70
2018-06-17T05:01:21.277Z,50.80
2018-06-17T05:02:26.220Z,50.80
2018-06-17T05:03:31.308Z,51.00
2018-06-17T05:04:36.276Z,51.50
2018-06-17T05:05:41.251Z,51.40
2018-06-17T05:06:46.188Z,51.40
2018-06-17T05:07:51.146Z,51.40
2018-06-17T05:08:56.298Z,51.70
2018-06-17T05:10:01.239Z,51.80
2018-06-17T05:11:06.145Z,51.80
2018-06-17T05:12:11.055Z,52.00
2018-06-17T05:13:16.032Z,51.80
2018-06-17T05:14:21.015Z,51.90
2018-06-17T05:15:25.923Z,51.90
2018-06-17T05:16:31.015Z,51.90
2018-06-17T05:17:35.820Z,51.90
2018-06-17T05:18:40.893Z,52.00
2018-06-17T05:19:45.810Z,51.90
2018-06-17T05:20:50.730Z,52.70
2018-06-17T05:21:55.723Z,52.00
2018-06-17T05:23:00.699Z,52.10
2018-06-17T05:24:05.725Z,52.20
2018-06-17T05:25:10.836Z,52.20
2018-06-17T05:26:15.998Z,52.30
2018-06-17T05:27:21.096Z,52.30
2018-06-17T05:28:26.178Z,52.30
2018-06-17T05:29:31.158Z,52.40
2018-06-17T05:30:36.121Z,52.30
2018-06-17T05:31:41.189Z,52.30
2018-06-17T05:32:46.175Z,52.20
2018-06-17T05:33:51.357Z,52.30
2018-06-17T05:34:56.195Z,52.30
2018-06-17T05:36:01.247Z,52.30
2018-06-17T05:37:06.294Z,52.30
2018-06-17T05:38:11.350Z,52.10
2018-06-17T05:39:16.238Z,52.10
2018-06-17T05:40:21.378Z,52.20
2018-06-17T05:41:26.388Z,52.10
2018-06-17T05:42:31.305Z,52.20
2018-06-17T05:43:36.229Z,52.20
2018-06-17T05:44:41.307Z,52.10
2018-06-17T05:45:46.453Z,51.90
2018-06-17T05:46:51.532Z,51.90
2018-06-17T05:47:56.752Z,51.80
2018-06-17T05:49:02.072Z,51.80
2018-06-17T05:50:07.099Z,51.70
2018-06-17T05:51:12.301Z,51.80
2018-06-17T05:52:17.535Z,51.70
2018-06-17T05:53:22.560Z,52.30
2018-06-17T05:54:27.581Z,51.50
2018-06-17T05:55:32.624Z,51.50
2018-06-17T05:56:37.580Z,51.40
2018-06-17T05:57:42.760Z,51.50
2018-06-17T05:58:47.774Z,51.40
2018-06-17T05:59:52.845Z,51.50
2018-06-17T06:00:57.797Z,51.50
2018-06-17T06:02:02.710Z,51.40
2018-06-17T06:03:07.808Z,51.40
2018-06-17T06:04:12.644Z,51.40
2018-06-17T06:05:17.720Z,51.40
2018-06-17T06:06:22.682Z,51.40
2018-06-17T06:07:27.522Z,51.40
2018-06-17T06:08:32.342Z,51.30
2018-06-17T06:09:37.367Z,51.30
2018-06-17T06:10:42.366Z,51.30
2018-06-17T06:11:47.374Z,51.30
2018-06-17T06:12:52.419Z,51.30
2018-06-17T06:13:57.378Z,51.30
2018-06-17T06:15:02.537Z,51.30
2018-06-17T06:16:07.645Z,51.20
2018-06-17T06:17:12.569Z,51.20
2018-06-17T06:18:17.531Z,51.20
2018-06-17T06:19:22.463Z,51.10
2018-06-17T06:20:27.431Z,51.20
2018-06-17T06:21:32.465Z,51.00
2018-06-17T06:22:37.609Z,51.00
2018-06-17T06:23:42.578Z,51.00
2018-06-17T06:24:47.702Z,50.90
2018-06-17T06:25:52.705Z,50.90
2018-06-17T06:26:57.847Z,50.80
2018-06-17T06:28:02.761Z,50.70
2018-06-17T06:29:07.878Z,50.70
2018-06-17T06:30:12.806Z,50.60
2018-06-17T06:31:17.946Z,50.60
2018-06-17T06:32:23.036Z,50.30
2018-06-17T06:33:27.963Z,50.40
2018-06-17T06:34:32.870Z,50.40
2018-06-17T06:35:37.865Z,50.30
2018-06-17T06:36:42.852Z,50.20
2018-06-17T06:37:47.955Z,50.20
2018-06-17T06:38:53.260Z,50.90
2018-06-17T06:39:58.352Z,50.10
2018-06-17T06:41:03.497Z,50.20
2018-06-17T06:42:08.530Z,50.30
2018-06-17T06:43:13.716Z,50.30
2018-06-17T06:44:18.654Z,50.20
2018-06-17T06:45:23.578Z,50.20
2018-06-17T06:46:28.619Z,50.20
2018-06-17T06:47:33.609Z,50.20
2018-06-17T06:48:38.649Z,50.10
2018-06-17T06:49:43.725Z,50.10
2018-06-17T06:50:48.799Z,50.80
2018-06-17T06:51:53.880Z,49.90
2018-06-17T06:52:58.879Z,49.90
2018-06-17T06:54:03.910Z,49.80
2018-06-17T06:55:08.840Z,49.80
2018-06-17T06:56:13.881Z,49.90
2018-06-17T06:57:18.792Z,49.90
2018-06-17T06:58:23.861Z,49.80
2018-06-17T06:59:28.847Z,49.80
2018-06-17T07:00:33.800Z,49.70
2018-06-17T07:01:38.784Z,49.70
2018-06-17T07:02:43.807Z,49.70
2018-06-17T07:03:48.612Z,49.70
2018-06-17T07:04:53.655Z,49.70
2018-06-17T07:05:58.659Z,49.60
2018-06-17T07:07:03.539Z,49.60
2018-06-17T07:08:08.598Z,49.60
2018-06-17T07:09:13.574Z,49.60
2018-06-17T07:10:18.439Z,49.40
2018-06-17T07:11:23.479Z,49.40
2018-06-17T07:12:28.489Z,49.40
2018-06-17T07:13:33.527Z,49.40
2018-06-17T07:14:38.639Z,49.40
2018-06-17T07:15:43.502Z,49.40
2018-06-17T07:16:48.425Z,49.10
2018-06-17T07:17:53.198Z,49.00
2018-06-17T07:18:58.148Z,49.10
2018-06-17T07:20:03.247Z,49.10
2018-06-17T07:21:08.332Z,49.10
2018-06-17T07:22:13.414Z,49.20
2018-06-17T07:23:18.462Z,49.10
2018-06-17T07:24:23.510Z,48.90
2018-06-17T07:25:28.557Z,48.70
2018-06-17T07:26:33.617Z,48.80
2018-06-17T07:27:38.620Z,48.60
2018-06-17T07:28:43.522Z,48.80
2018-06-17T07:29:48.463Z,48.60
2018-06-17T07:30:53.505Z,48.60
2018-06-17T07:31:58.547Z,48.70
2018-06-17T07:33:03.539Z,48.50
2018-06-17T07:34:08.476Z,48.50
2018-06-17T07:35:13.405Z,48.50
2018-06-17T07:36:18.537Z,48.30
2018-06-17T07:37:23.714Z,48.30
2018-06-17T07:38:28.773Z,48.30
2018-06-17T07:39:33.710Z,48.20
2018-06-17T07:40:38.806Z,48.20
2018-06-17T07:41:43.848Z,48.30
2018-06-17T07:42:48.760Z,48.30
2018-06-17T07:43:53.945Z,48.30
2018-06-17T07:44:59.010Z,48.30
2018-06-17T07:46:04.046Z,48.20
2018-06-17T07:47:09.184Z,48.10
2018-06-17T07:48:14.402Z,48.20
2018-06-17T07:49:19.540Z,48.00
2018-06-17T07:50:24.493Z,48.10
2018-06-17T07:51:29.562Z,48.10
2018-06-17T07:52:34.572Z,48.10
2018-06-17T07:53:39.583Z,48.10
2018-06-17T07:54:44.561Z,48.00
2018-06-17T07:55:49.534Z,48.00
2018-06-17T07:56:54.417Z,47.90
2018-06-17T07:57:59.362Z,47.90
2018-06-17T07:59:04.271Z,47.90
2018-06-17T08:00:09.278Z,47.90
2018-06-17T08:01:14.242Z,47.90
2018-06-17T08:02:19.434Z,47.80
2018-06-17T08:03:24.437Z,47.80
2018-06-17T08:04:29.378Z,47.80
2018-06-17T08:05:34.970Z,47.70
2018-06-17T08:06:40.173Z,47.70
2018-06-17T08:07:45.245Z,47.50
2018-06-17T08:08:50.220Z,47.60
2018-06-17T08:09:55.309Z,47.60
2018-06-17T08:11:00.320Z,47.70
2018-06-17T08:12:05.561Z,47.90
2018-06-17T08:13:10.635Z,47.70
2018-06-17T08:14:15.637Z,47.80
2018-06-17T08:15:21.289Z,47.70
2018-06-17T08:16:27.728Z,47.80
2018-06-17T08:17:32.653Z,47.70
2018-06-17T08:18:37.487Z,47.70
2018-06-17T08:19:42.351Z,47.70
2018-06-17T08:20:47.385Z,47.80
2018-06-17T08:21:52.337Z,47.80
2018-06-17T08:22:57.294Z,47.80
2018-06-17T08:24:02.306Z,47.80
2018-06-17T08:25:07.675Z,47.70
2018-06-17T08:26:12.683Z,47.80
2018-06-17T08:27:17.795Z,47.80
2018-06-17T08:28:22.914Z,47.70
2018-06-17T08:29:27.884Z,47.70
2018-06-17T08:30:32.955Z,47.70
2018-06-17T08:31:37.950Z,47.40
2018-06-17T08:32:42.823Z,47.50
2018-06-17T08:33:47.685Z,47.50
2018-06-17T08:34:52.558Z,47.60
2018-06-17T08:35:57.661Z,47.70
2018-06-17T08:37:03.058Z,47.70
2018-06-17T08:38:08.274Z,47.60
2018-06-17T08:39:13.348Z,47.60
2018-06-17T08:40:18.457Z,47.60
2018-06-17T08:41:23.633Z,47.70
2018-06-17T08:42:28.620Z,47.60
2018-06-17T08:43:33.637Z,47.60
2018-06-17T08:44:38.556Z,47.50
2018-06-17T08:45:43.564Z,47.50
2018-06-17T08:46:49.909Z,47.50
2018-06-17T08:47:55.706Z,47.50
2018-06-17T08:49:01.710Z,47.50
2018-06-17T08:50:07.817Z,47.50
2018-06-17T08:51:12.825Z,47.50
2018-06-17T08:52:17.789Z,47.50
2018-06-17T08:53:22.703Z,47.50
2018-06-17T08:54:27.646Z,47.50
2018-06-17T08:55:32.633Z,47.50
2018-06-17T08:56:37.522Z,47.60
2018-06-17T08:57:43.307Z,47.60
2018-06-17T08:58:48.577Z,47.70
2018-06-17T08:59:53.686Z,47.60
2018-06-17T09:00:58.702Z,47.70
2018-06-17T09:02:03.720Z,47.70
2018-06-17T09:03:08.876Z,47.70
2018-06-17T09:04:14.139Z,47.70
2018-06-17T09:05:19.170Z,47.80
2018-06-17T09:06:24.289Z,47.60
2018-06-17T09:07:29.529Z,47.60
2018-06-17T09:08:34.567Z,47.60
2018-06-17T09:09:39.661Z,47.60
2018-06-17T09:10:44.576Z,47.60
2018-06-17T09:11:49.518Z,47.70
2018-06-17T09:12:54.586Z,47.70
2018-06-17T09:13:59.627Z,47.60
2018-06-17T09:15:04.593Z,47.80
2018-06-17T09:16:09.587Z,47.60
2018-06-17T09:17:14.491Z,47.50
2018-06-17T09:18:19.541Z,47.50
2018-06-17T09:19:24.527Z,47.50
2018-06-17T09:20:29.534Z,47.50
2018-06-17T09:21:34.478Z,47.50
2018-06-17T09:22:39.319Z,47.40
2018-06-17T09:23:44.430Z,47.50
2018-06-17T09:24:49.519Z,47.50
2018-06-17T09:25:54.666Z,47.50
2018-06-17T09:26:59.981Z,47.50
2018-06-17T09:28:05.010Z,47.40
2018-06-17T09:29:10.053Z,47.50
2018-06-17T09:30:15.127Z,47.60
2018-06-17T09:31:20.128Z,47.60
2018-06-17T09:32:25.239Z,47.50
2018-06-17T09:33:30.260Z,47.40
2018-06-17T09:34:35.309Z,47.50
2018-06-17T09:35:40.419Z,47.60
2018-06-17T09:36:45.528Z,48.20
2018-06-17T09:37:50.478Z,47.50
2018-06-17T09:38:55.518Z,47.50
2018-06-17T09:40:00.569Z,47.50
2018-06-17T09:41:05.794Z,47.40
2018-06-17T09:42:10.913Z,47.50
2018-06-17T09:43:16.233Z,47.50
2018-06-17T09:44:21.285Z,47.50
2018-06-17T09:45:26.423Z,47.40
2018-06-17T09:46:31.384Z,47.50
2018-06-17T09:47:36.492Z,47.40
2018-06-17T09:48:41.417Z,47.60
2018-06-17T09:49:46.308Z,47.40
2018-06-17T09:50:51.300Z,47.40
2018-06-17T09:51:56.195Z,47.50
2018-06-17T09:53:01.174Z,47.40
2018-06-17T09:54:06.303Z,47.40
2018-06-17T09:55:11.420Z,47.40
2018-06-17T09:56:16.541Z,47.50
2018-06-17T09:57:26.060Z,47.40
2018-06-17T09:58:33.106Z,47.50
2018-06-17T09:59:41.493Z,47.50
2018-06-17T10:00:51.289Z,47.50
2018-06-17T10:01:59.976Z,47.60
2018-06-17T10:03:06.837Z,47.60
2018-06-17T10:04:13.311Z,47.60
2018-06-17T10:05:23.007Z,47.50
2018-06-17T10:06:30.116Z,47.40
2018-06-17T10:07:37.170Z,47.30
2018-06-17T10:08:46.670Z,47.20
2018-06-17T10:09:53.433Z,47.30
2018-06-17T10:11:01.053Z,47.40
2018-06-17T10:12:07.063Z,47.30
2018-06-17T10:13:13.064Z,47.20
2018-06-17T10:14:22.188Z,47.10
2018-06-17T10:15:30.643Z,47.20
2018-06-17T10:16:41.167Z,47.20
2018-06-17T10:17:47.470Z,47.20
2018-06-17T10:18:58.292Z,47.20
2018-06-17T10:20:04.320Z,46.90
2018-06-17T10:21:10.991Z,46.70
2018-06-17T10:22:18.624Z,46.20
2018-06-17T10:23:26.870Z,46.70
2018-06-17T10:24:34.965Z,46.60
2018-06-17T10:25:41.704Z,46.90
2018-06-17T10:26:50.505Z,46.90
2018-06-17T10:28:01.563Z,46.90
2018-06-17T10:29:07.437Z,46.70
2018-06-17T10:30:15.751Z,46.80
2018-06-17T10:31:26.080Z,46.80
2018-06-17T10:32:34.578Z,46.80
2018-06-17T10:33:42.029Z,46.70
2018-06-17T10:34:50.884Z,46.60
2018-06-17T10:36:00.420Z,46.70
2018-06-17T10:37:08.132Z,46.70
2018-06-17T10:38:15.410Z,46.50
2018-06-17T10:39:25.217Z,46.30
2018-06-17T10:40:36.421Z,46.40
2018-06-17T10:41:43.935Z,46.60
2018-06-17T10:42:52.999Z,46.60
2018-06-17T10:44:03.327Z,47.30
2018-06-17T10:45:08.754Z,46.60
2018-06-17T10:46:13.740Z,46.60
2018-06-17T10:47:18.825Z,46.60
2018-06-17T10:48:24.275Z,46.60
2018-06-17T10:49:29.414Z,46.60
2018-06-17T10:50:34.518Z,46.70
2018-06-17T10:51:39.502Z,46.60
2018-06-17T10:52:44.547Z,46.60
2018-06-17T10:53:49.407Z,46.60
2018-06-17T10:54:54.316Z,46.60
2018-06-17T10:56:00.278Z,46.70
2018-06-17T10:57:05.377Z,46.70
2018-06-17T10:58:10.584Z,46.70
2018-06-17T10:59:15.822Z,46.80
2018-06-17T11:00:22.054Z,46.70
2018-06-17T11:01:27.049Z,46.40
2018-06-17T11:02:32.086Z,46.70
2018-06-17T11:03:37.547Z,46.60
2018-06-17T11:04:42.665Z,47.10
2018-06-17T11:05:47.657Z,46.30
2018-06-17T11:06:52.761Z,46.10
2018-06-17T11:07:57.655Z,46.20
2018-06-17T11:09:02.737Z,46.00
2018-06-17T11:10:07.782Z,46.10
2018-06-17T11:11:14.533Z,46.10
2018-06-17T11:12:19.602Z,46.20
2018-06-17T11:13:24.775Z,46.20
2018-06-17T11:14:29.827Z,46.20
2018-06-17T11:15:34.785Z,46.10
2018-06-17T11:16:39.769Z,46.30
2018-06-17T11:17:44.844Z,46.30
2018-06-17T11:18:49.871Z,46.20
2018-06-17T11:19:54.941Z,46.20
2018-06-17T11:20:59.949Z,46.20
2018-06-17T11:22:04.974Z,46.20
2018-06-17T11:23:10.504Z,46.20
2018-06-17T11:24:15.555Z,46.10
2018-06-17T11:25:20.559Z,46.10
2018-06-17T11:26:25.454Z,46.20
2018-06-17T11:27:30.367Z,46.20
2018-06-17T11:28:35.440Z,46.10
2018-06-17T11:29:40.494Z,46.10
2018-06-17T11:30:45.384Z,46.10
2018-06-17T11:31:51.617Z,46.00
2018-06-17T11:32:56.717Z,46.00
2018-06-17T11:34:01.712Z,46.00
2018-06-17T11:35:06.776Z,46.00
2018-06-17T11:36:11.816Z,46.00
2018-06-17T11:37:16.862Z,46.00
2018-06-17T11:38:21.782Z,46.00
2018-06-17T11:39:26.694Z,46.00
2018-06-17T11:40:31.655Z,45.90
2018-06-17T11:41:36.725Z,45.90
2018-06-17T11:42:41.786Z,45.90
2018-06-17T11:43:46.690Z,45.80
2018-06-17T11:44:51.728Z,45.90
2018-06-17T11:45:56.792Z,45.80
2018-06-17T11:47:01.941Z,45.80
2018-06-17T11:48:06.984Z,45.80
2018-06-17T11:49:11.905Z,45.80
2018-06-17T11:50:16.817Z,45.80
2018-06-17T11:51:21.932Z,45.80
2018-06-17T11:52:26.914Z,45.80
2018-06-17T11:53:31.834Z,45.90
2018-06-17T11:54:36.775Z,45.80
2018-06-17T11:55:41.790Z,45.80
2018-06-17T11:56:46.683Z,45.80
2018-06-17T11:57:51.691Z,45.80
2018-06-17T11:58:56.591Z,45.80
2018-06-17T12:00:01.623Z,45.80
2018-06-17T12:01:06.489Z,45.80
2018-06-17T12:02:11.565Z,45.80
2018-06-17T12:03:16.554Z,45.80
2018-06-17T12:04:21.427Z,45.80
2018-06-17T12:05:26.413Z,45.80
2018-06-17T12:06:31.336Z,45.80
2018-06-17T12:07:36.242Z,45.80
2018-06-17T12:08:41.276Z,45.80
2018-06-17T12:09:46.234Z,45.80
2018-06-17T12:10:51.536Z,45.90
2018-06-17T12:11:56.475Z,45.80
2018-06-17T12:13:01.539Z,45.80
2018-06-17T12:14:06.615Z,45.90
2018-06-17T12:15:11.713Z,45.80
2018-06-17T12:16:16.732Z,45.70
2018-06-17T12:17:21.778Z,45.70
2018-06-17T12:18:26.816Z,45.70
2018-06-17T12:19:31.805Z,45.70
2018-06-17T12:20:37.949Z,45.80
2018-06-17T12:21:42.990Z,45.80
2018-06-17T12:22:47.957Z,45.70
2018-06-17T12:23:52.999Z,45.50
2018-06-17T12:24:58.815Z,45.50
2018-06-17T12:26:03.733Z,45.60
2018-06-17T12:27:10.002Z,45.60
2018-06-17T12:28:15.078Z,46.20
2018-06-17T12:29:19.941Z,45.60
2018-06-17T12:30:24.987Z,45.60
2018-06-17T12:31:29.985Z,45.40
2018-06-17T12:32:34.877Z,45.50
2018-06-17T12:33:39.985Z,45.40
2018-06-17T12:34:44.848Z,45.40
2018-06-17T12:35:49.764Z,45.40
2018-06-17T12:36:54.726Z,45.20
2018-06-17T12:37:59.715Z,45.30
2018-06-17T12:39:04.778Z,45.30
2018-06-17T12:40:10.290Z,45.30
2018-06-17T12:41:15.235Z,45.20
2018-06-17T12:42:20.460Z,45.30
2018-06-17T12:43:26.050Z,45.20
2018-06-17T12:44:31.251Z,45.20
2018-06-17T12:45:36.840Z,45.20
2018-06-17T12:46:41.856Z,45.20
2018-06-17T12:47:46.910Z,45.30
2018-06-17T12:48:52.118Z,45.30
2018-06-17T12:49:57.141Z,44.90
2018-06-17T12:51:02.144Z,45.00
2018-06-17T12:52:07.186Z,45.10
2018-06-17T12:53:12.198Z,44.90
2018-06-17T12:54:17.278Z,45.00
2018-06-17T12:55:22.454Z,45.00
2018-06-17T12:56:27.378Z,45.10
2018-06-17T12:57:32.454Z,45.10
2018-06-17T12:58:37.427Z,45.20
2018-06-17T12:59:42.537Z,45.20
2018-06-17T13:00:47.621Z,45.10
2018-06-17T13:01:52.573Z,45.00
2018-06-17T13:02:57.509Z,45.10
2018-06-17T13:04:02.405Z,45.10
2018-06-17T13:05:07.485Z,45.10
2018-06-17T13:06:12.540Z,45.10
2018-06-17T13:07:17.634Z,45.10
2018-06-17T13:08:22.564Z,45.10
2018-06-17T13:09:27.750Z,45.00
2018-06-17T13:10:32.661Z,45.10
2018-06-17T13:11:37.693Z,45.00
2018-06-17T13:12:42.829Z,45.20
2018-06-17T13:13:47.918Z,45.10
2018-06-17T13:14:53.091Z,45.10
2018-06-17T13:15:58.003Z,45.10
2018-06-17T13:17:03.385Z,45.10
2018-06-17T13:18:08.571Z,45.10
2018-06-17T13:19:13.725Z,45.10
2018-06-17T13:20:19.485Z,45.10
2018-06-17T13:21:24.547Z,45.10
2018-06-17T13:22:29.586Z,45.10
2018-06-17T13:23:34.641Z,45.20
2018-06-17T13:24:39.731Z,45.10
2018-06-17T13:25:44.711Z,45.10
2018-06-17T13:26:49.626Z,45.10
2018-06-17T13:27:54.521Z,45.10
2018-06-17T13:28:59.594Z,45.20
2018-06-17T13:30:04.822Z,45.10
2018-06-17T13:31:09.918Z,45.20
2018-06-17T13:32:14.921Z,45.20
2018-06-17T13:33:19.963Z,45.00
2018-06-17T13:34:24.974Z,45.00
2018-06-17T13:35:29.828Z,45.00
2018-06-17T13:36:34.774Z,45.00
2018-06-17T13:37:39.797Z,45.00
2018-06-17T13:38:44.666Z,45.10
2018-06-17T13:39:49.799Z,45.00
2018-06-17T13:40:54.743Z,45.00
2018-06-17T13:41:59.770Z,45.10
2018-06-17T13:43:04.644Z,45.10
2018-06-17T13:44:09.753Z,45.10
2018-06-17T13:45:14.703Z,45.00
2018-06-17T13:46:20.478Z,45.00
2018-06-17T13:47:25.518Z,44.90
2018-06-17T13:48:30.487Z,44.90
2018-06-17T13:49:35.501Z,44.90
2018-06-17T13:50:40.608Z,44.90
2018-06-17T13:51:45.547Z,44.90
2018-06-17T13:52:50.621Z,44.80
2018-06-17T13:53:55.775Z,45.70
2018-06-17T13:55:01.640Z,44.90
2018-06-17T13:56:06.839Z,44.90
2018-06-17T13:57:11.818Z,44.90
2018-06-17T13:58:16.931Z,44.90
2018-06-17T13:59:22.088Z,44.70
2018-06-17T14:00:27.199Z,44.70